sensor_id;sensor_type;location;lat;lon;timestamp;P1;durP1;ratioP1;P2;durP2;ratioP2
40244;SDS011;25963;42.694;23.600;2023-05-10T00:02:24;6.07;;;5.40;;
40244;SDS011;25963;42.694;23.600;2023-05-10T00:04:50;6.40;;;5.70;;
40244;SDS011;25963;42.694;23.600;2023-05-10T00:07:16;6.47;;;5.72;;
40244;SDS011;25963;42.694;23.600;2023-05-10T00:09:42;7.32;;;6.63;;
40244;SDS011;25963;42.694;23.600;2023-05-10T00:12:08;7.80;;;6.70;;
40244;SDS011;25963;42.694;23.600;2023-05-10T00:14:34;7.68;;;6.88;;
40244;SDS011;25963;42.694;23.600;2023-05-10T00:17:00;8.02;;;6.90;;
40244;SDS011;25963;42.694;23.600;2023-05-10T00:19:25;7.90;;;6.63;;
40244;SDS011;25963;42.694;23.600;2023-05-10T00:21:51;9.60;;;6.57;;
40244;SDS011;25963;42.694;23.600;2023-05-10T00:24:17;7.30;;;6.10;;
40244;SDS011;25963;42.694;23.600;2023-05-10T00:26:42;8.38;;;7.18;;
40244;SDS011;25963;42.694;23.600;2023-05-10T00:29:08;7.57;;;6.88;;
40244;SDS011;25963;42.694;23.600;2023-05-10T00:31:33;8.38;;;7.13;;
40244;SDS011;25963;42.694;23.600;2023-05-10T00:33:59;7.95;;;6.70;;
40244;SDS011;25963;42.694;23.600;2023-05-10T00:36:24;10.40;;;7.53;;
40244;SDS011;25963;42.694;23.600;2023-05-10T00:38:49;8.68;;;6.88;;
40244;SDS011;25963;42.694;23.600;2023-05-10T00:41:15;9.18;;;6.80;;
40244;SDS011;25963;42.694;23.600;2023-05-10T00:43:40;7.00;;;6.07;;
40244;SDS011;25963;42.694;23.600;2023-05-10T00:46:06;7.75;;;6.32;;
40244;SDS011;25963;42.694;23.600;2023-05-10T00:48:32;7.38;;;6.22;;
40244;SDS011;25963;42.694;23.600;2023-05-10T00:50:58;8.00;;;6.47;;
40244;SDS011;25963;42.694;23.600;2023-05-10T00:53:24;8.52;;;6.30;;
40244;SDS011;25963;42.694;23.600;2023-05-10T00:55:49;6.70;;;5.68;;
40244;SDS011;25963;42.694;23.600;2023-05-10T00:58:16;9.63;;;5.63;;
40244;SDS011;25963;42.694;23.600;2023-05-10T01:00:42;8.60;;;6.93;;
40244;SDS011;25963;42.694;23.600;2023-05-10T01:03:09;7.82;;;6.47;;
40244;SDS011;25963;42.694;23.600;2023-05-10T01:05:36;6.40;;;5.55;;
40244;SDS011;25963;42.694;23.600;2023-05-10T01:08:02;7.05;;;5.53;;
40244;SDS011;25963;42.694;23.600;2023-05-10T01:10:27;6.15;;;5.43;;
40244;SDS011;25963;42.694;23.600;2023-05-10T01:12:53;6.95;;;5.63;;
40244;SDS011;25963;42.694;23.600;2023-05-10T01:15:18;8.23;;;6.25;;
40244;SDS011;25963;42.694;23.600;2023-05-10T01:17:45;6.97;;;6.07;;
40244;SDS011;25963;42.694;23.600;2023-05-10T01:20:12;6.35;;;5.72;;
40244;SDS011;25963;42.694;23.600;2023-05-10T01:22:49;8.35;;;5.65;;
40244;SDS011;25963;42.694;23.600;2023-05-10T01:34:02;8.52;;;6.28;;
40244;SDS011;25963;42.694;23.600;2023-05-10T01:36:31;7.45;;;6.57;;
40244;SDS011;25963;42.694;23.600;2023-05-10T01:41:40;9.35;;;6.95;;
40244;SDS011;25963;42.694;23.600;2023-05-10T01:47:05;9.45;;;7.00;;
40244;SDS011;25963;42.694;23.600;2023-05-10T01:49:47;8.88;;;6.80;;
40244;SDS011;25963;42.694;23.600;2023-05-10T01:52:16;9.10;;;7.25;;
40244;SDS011;25963;42.694;23.600;2023-05-10T01:54:46;7.82;;;6.55;;
40244;SDS011;25963;42.694;23.600;2023-05-10T01:57:18;8.35;;;6.25;;
40244;SDS011;25963;42.694;23.600;2023-05-10T01:59:47;9.63;;;7.25;;
40244;SDS011;25963;42.694;23.600;2023-05-10T02:02:15;8.55;;;6.22;;
40244;SDS011;25963;42.694;23.600;2023-05-10T02:04:44;8.57;;;7.72;;
40244;SDS011;25963;42.694;23.600;2023-05-10T02:07:11;8.13;;;6.55;;
40244;SDS011;25963;42.694;23.600;2023-05-10T02:09:37;9.02;;;7.32;;
40244;SDS011;25963;42.694;23.600;2023-05-10T02:12:03;10.73;;;9.68;;
40244;SDS011;25963;42.694;23.600;2023-05-10T02:14:32;10.38;;;9.27;;
40244;SDS011;25963;42.694;23.600;2023-05-10T02:17:01;11.43;;;9.43;;
40244;SDS011;25963;42.694;23.600;2023-05-10T02:19:29;11.05;;;8.32;;
40244;SDS011;25963;42.694;23.600;2023-05-10T02:21:56;8.35;;;7.57;;
40244;SDS011;25963;42.694;23.600;2023-05-10T02:24:24;8.68;;;6.22;;
40244;SDS011;25963;42.694;23.600;2023-05-10T02:26:51;7.25;;;5.38;;
40244;SDS011;25963;42.694;23.600;2023-05-10T02:29:20;7.88;;;6.45;;
40244;SDS011;25963;42.694;23.600;2023-05-10T02:31:48;7.28;;;6.30;;
40244;SDS011;25963;42.694;23.600;2023-05-10T02:34:16;8.45;;;5.97;;
40244;SDS011;25963;42.694;23.600;2023-05-10T02:36:42;7.30;;;6.28;;
40244;SDS011;25963;42.694;23.600;2023-05-10T02:39:08;8.20;;;6.22;;
40244;SDS011;25963;42.694;23.600;2023-05-10T02:41:37;10.85;;;7.30;;
40244;SDS011;25963;42.694;23.600;2023-05-10T02:44:06;9.05;;;7.13;;
40244;SDS011;25963;42.694;23.600;2023-05-10T02:46:34;8.25;;;7.15;;
40244;SDS011;25963;42.694;23.600;2023-05-10T02:49:00;10.10;;;6.93;;
40244;SDS011;25963;42.694;23.600;2023-05-10T02:51:27;8.07;;;6.00;;
40244;SDS011;25963;42.694;23.600;2023-05-10T02:53:56;12.02;;;6.50;;
40244;SDS011;25963;42.694;23.600;2023-05-10T02:56:25;9.82;;;7.10;;
40244;SDS011;25963;42.694;23.600;2023-05-10T02:58:56;9.43;;;7.10;;
40244;SDS011;25963;42.694;23.600;2023-05-10T03:01:22;7.95;;;6.60;;
40244;SDS011;25963;42.694;23.600;2023-05-10T03:03:47;8.52;;;6.70;;
40244;SDS011;25963;42.694;23.600;2023-05-10T03:06:13;10.63;;;8.05;;
40244;SDS011;25963;42.694;23.600;2023-05-10T03:08:38;7.97;;;6.72;;
40244;SDS011;25963;42.694;23.600;2023-05-10T03:13:35;8.88;;;7.68;;
40244;SDS011;25963;42.694;23.600;2023-05-10T03:16:10;13.18;;;7.70;;
40244;SDS011;25963;42.694;23.600;2023-05-10T03:18:44;13.77;;;8.75;;
40244;SDS011;25963;42.694;23.600;2023-05-10T03:21:27;12.27;;;8.85;;
40244;SDS011;25963;42.694;23.600;2023-05-10T03:24:15;10.77;;;7.97;;
40244;SDS011;25963;42.694;23.600;2023-05-10T03:26:41;9.88;;;8.40;;
40244;SDS011;25963;42.694;23.600;2023-05-10T03:29:10;9.98;;;7.07;;
40244;SDS011;25963;42.694;23.600;2023-05-10T03:31:38;11.93;;;6.95;;
40244;SDS011;25963;42.694;23.600;2023-05-10T03:34:03;9.02;;;6.25;;
40244;SDS011;25963;42.694;23.600;2023-05-10T03:36:29;9.50;;;6.40;;
40244;SDS011;25963;42.694;23.600;2023-05-10T03:38:54;10.15;;;7.40;;
40244;SDS011;25963;42.694;23.600;2023-05-10T03:41:20;8.60;;;7.18;;
40244;SDS011;25963;42.694;23.600;2023-05-10T03:43:45;9.55;;;6.65;;
40244;SDS011;25963;42.694;23.600;2023-05-10T03:46:11;11.55;;;7.45;;
40244;SDS011;25963;42.694;23.600;2023-05-10T03:48:36;8.70;;;7.38;;
40244;SDS011;25963;42.694;23.600;2023-05-10T03:51:02;10.43;;;7.35;;
40244;SDS011;25963;42.694;23.600;2023-05-10T03:53:27;13.25;;;8.10;;
40244;SDS011;25963;42.694;23.600;2023-05-10T03:55:52;9.98;;;8.20;;
40244;SDS011;25963;42.694;23.600;2023-05-10T03:58:18;9.50;;;8.02;;
40244;SDS011;25963;42.694;23.600;2023-05-10T04:00:43;10.57;;;7.80;;
40244;SDS011;25963;42.694;23.600;2023-05-10T04:03:10;9.23;;;6.75;;
40244;SDS011;25963;42.694;23.600;2023-05-10T04:05:37;10.07;;;7.40;;
40244;SDS011;25963;42.694;23.600;2023-05-10T04:08:02;8.23;;;7.20;;
40244;SDS011;25963;42.694;23.600;2023-05-10T04:10:28;8.40;;;6.32;;
40244;SDS011;25963;42.694;23.600;2023-05-10T04:12:53;9.45;;;7.25;;
40244;SDS011;25963;42.694;23.600;2023-05-10T04:15:19;8.38;;;6.53;;
40244;SDS011;25963;42.694;23.600;2023-05-10T04:17:45;10.75;;;7.18;;
40244;SDS011;25963;42.694;23.600;2023-05-10T04:20:10;8.32;;;6.18;;
40244;SDS011;25963;42.694;23.600;2023-05-10T04:22:37;6.85;;;5.35;;
40244;SDS011;25963;42.694;23.600;2023-05-10T04:25:02;8.07;;;6.22;;
40244;SDS011;25963;42.694;23.600;2023-05-10T04:27:29;8.50;;;6.28;;
40244;SDS011;25963;42.694;23.600;2023-05-10T04:29:54;7.55;;;5.88;;
40244;SDS011;25963;42.694;23.600;2023-05-10T04:32:20;10.20;;;6.00;;
40244;SDS011;25963;42.694;23.600;2023-05-10T04:34:45;10.50;;;6.22;;
40244;SDS011;25963;42.694;23.600;2023-05-10T04:37:11;9.02;;;6.00;;
40244;SDS011;25963;42.694;23.600;2023-05-10T04:39:36;8.68;;;6.05;;
40244;SDS011;25963;42.694;23.600;2023-05-10T04:42:05;7.57;;;5.30;;
40244;SDS011;25963;42.694;23.600;2023-05-10T04:44:31;9.15;;;5.15;;
40244;SDS011;25963;42.694;23.600;2023-05-10T04:46:57;8.43;;;5.25;;
40244;SDS011;25963;42.694;23.600;2023-05-10T04:49:22;6.00;;;5.18;;
40244;SDS011;25963;42.694;23.600;2023-05-10T04:51:48;12.95;;;5.80;;
40244;SDS011;25963;42.694;23.600;2023-05-10T04:54:13;7.00;;;5.68;;
40244;SDS011;25963;42.694;23.600;2023-05-10T04:56:42;10.20;;;5.38;;
40244;SDS011;25963;42.694;23.600;2023-05-10T04:59:07;7.03;;;5.80;;
40244;SDS011;25963;42.694;23.600;2023-05-10T05:01:33;8.85;;;6.47;;
40244;SDS011;25963;42.694;23.600;2023-05-10T05:04:01;10.02;;;5.85;;
40244;SDS011;25963;42.694;23.600;2023-05-10T05:06:27;6.97;;;5.15;;
40244;SDS011;25963;42.694;23.600;2023-05-10T05:08:52;9.32;;;5.97;;
40244;SDS011;25963;42.694;23.600;2023-05-10T05:11:18;10.90;;;5.82;;
40244;SDS011;25963;42.694;23.600;2023-05-10T05:13:43;11.27;;;6.15;;
40244;SDS011;25963;42.694;23.600;2023-05-10T05:16:09;7.57;;;6.15;;
40244;SDS011;25963;42.694;23.600;2023-05-10T05:18:35;8.90;;;5.43;;
40244;SDS011;25963;42.694;23.600;2023-05-10T05:21:01;7.55;;;5.47;;
40244;SDS011;25963;42.694;23.600;2023-05-10T05:23:26;7.00;;;5.82;;
40244;SDS011;25963;42.694;23.600;2023-05-10T05:25:52;7.82;;;4.88;;
40244;SDS011;25963;42.694;23.600;2023-05-10T05:28:18;8.60;;;6.15;;
40244;SDS011;25963;42.694;23.600;2023-05-10T05:30:44;15.60;;;12.30;;
40244;SDS011;25963;42.694;23.600;2023-05-10T05:33:10;114.65;;;46.47;;
40244;SDS011;25963;42.694;23.600;2023-05-10T05:35:36;36.78;;;15.23;;
40244;SDS011;25963;42.694;23.600;2023-05-10T05:38:01;87.55;;;34.55;;
40244;SDS011;25963;42.694;23.600;2023-05-10T05:40:27;163.10;;;53.25;;
40244;SDS011;25963;42.694;23.600;2023-05-10T05:42:52;69.55;;;26.50;;
40244;SDS011;25963;42.694;23.600;2023-05-10T05:45:18;80.80;;;27.05;;
40244;SDS011;25963;42.694;23.600;2023-05-10T05:47:43;149.85;;;51.88;;
40244;SDS011;25963;42.694;23.600;2023-05-10T05:50:09;156.57;;;51.95;;
40244;SDS011;25963;42.694;23.600;2023-05-10T05:52:34;121.22;;;39.35;;
40244;SDS011;25963;42.694;23.600;2023-05-10T05:55:01;14.60;;;7.15;;
40244;SDS011;25963;42.694;23.600;2023-05-10T05:57:26;17.20;;;8.50;;
40244;SDS011;25963;42.694;23.600;2023-05-10T05:59:52;25.25;;;11.27;;
40244;SDS011;25963;42.694;23.600;2023-05-10T06:02:17;40.30;;;14.65;;
40244;SDS011;25963;42.694;23.600;2023-05-10T06:04:42;121.72;;;39.97;;
40244;SDS011;25963;42.694;23.600;2023-05-10T06:07:08;7.78;;;5.45;;
40244;SDS011;25963;42.694;23.600;2023-05-10T06:09:33;11.13;;;7.00;;
40244;SDS011;25963;42.694;23.600;2023-05-10T06:11:59;15.48;;;8.60;;
40244;SDS011;25963;42.694;23.600;2023-05-10T06:14:24;16.23;;;7.80;;
40244;SDS011;25963;42.694;23.600;2023-05-10T06:16:50;9.55;;;6.13;;
40244;SDS011;25963;42.694;23.600;2023-05-10T06:19:15;6.90;;;5.35;;
40244;SDS011;25963;42.694;23.600;2023-05-10T06:21:41;10.13;;;7.22;;
40244;SDS011;25963;42.694;23.600;2023-05-10T06:24:06;11.00;;;7.55;;
40244;SDS011;25963;42.694;23.600;2023-05-10T06:26:32;10.27;;;6.10;;
40244;SDS011;25963;42.694;23.600;2023-05-10T06:28:58;36.15;;;17.10;;
40244;SDS011;25963;42.694;23.600;2023-05-10T06:31:23;33.35;;;15.18;;
40244;SDS011;25963;42.694;23.600;2023-05-10T06:33:48;9.93;;;6.20;;
40244;SDS011;25963;42.694;23.600;2023-05-10T06:36:14;25.02;;;12.75;;
40244;SDS011;25963;42.694;23.600;2023-05-10T06:38:39;41.40;;;20.35;;
40244;SDS011;25963;42.694;23.600;2023-05-10T06:41:05;16.77;;;9.25;;
40244;SDS011;25963;42.694;23.600;2023-05-10T06:43:31;24.95;;;13.30;;
40244;SDS011;25963;42.694;23.600;2023-05-10T06:45:56;9.15;;;6.35;;
40244;SDS011;25963;42.694;23.600;2023-05-10T06:48:22;56.63;;;24.33;;
40244;SDS011;25963;42.694;23.600;2023-05-10T06:50:48;28.85;;;12.50;;
40244;SDS011;25963;42.694;23.600;2023-05-10T06:53:14;22.98;;;11.85;;
40244;SDS011;25963;42.694;23.600;2023-05-10T06:55:40;11.60;;;7.18;;
40244;SDS011;25963;42.694;23.600;2023-05-10T06:58:06;29.08;;;14.75;;
40244;SDS011;25963;42.694;23.600;2023-05-10T07:00:31;15.85;;;9.10;;
40244;SDS011;25963;42.694;23.600;2023-05-10T07:02:57;65.15;;;34.83;;
40244;SDS011;25963;42.694;23.600;2023-05-10T07:05:23;13.82;;;8.38;;
40244;SDS011;25963;42.694;23.600;2023-05-10T07:07:49;8.27;;;6.28;;
40244;SDS011;25963;42.694;23.600;2023-05-10T07:10:14;5.70;;;4.32;;
40244;SDS011;25963;42.694;23.600;2023-05-10T08:01:17;22.13;;;11.13;;
40244;SDS011;25963;42.694;23.600;2023-05-10T08:03:43;15.85;;;9.52;;
40244;SDS011;25963;42.694;23.600;2023-05-10T08:06:08;10.85;;;6.50;;
40244;SDS011;25963;42.694;23.600;2023-05-10T08:08:34;18.45;;;8.55;;
40244;SDS011;25963;42.694;23.600;2023-05-10T08:10:59;41.53;;;20.05;;
40244;SDS011;25963;42.694;23.600;2023-05-10T08:13:25;30.05;;;15.15;;
40244;SDS011;25963;42.694;23.600;2023-05-10T08:15:50;37.33;;;17.15;;
40244;SDS011;25963;42.694;23.600;2023-05-10T08:18:18;12.63;;;6.30;;
40244;SDS011;25963;42.694;23.600;2023-05-10T08:20:43;11.75;;;7.45;;
40244;SDS011;25963;42.694;23.600;2023-05-10T08:23:09;12.52;;;6.60;;
40244;SDS011;25963;42.694;23.600;2023-05-10T08:25:34;66.15;;;28.23;;
40244;SDS011;25963;42.694;23.600;2023-05-10T08:28:00;19.65;;;11.15;;
40244;SDS011;25963;42.694;23.600;2023-05-10T08:30:25;12.88;;;9.77;;
40244;SDS011;25963;42.694;23.600;2023-05-10T08:32:51;10.25;;;7.38;;
40244;SDS011;25963;42.694;23.600;2023-05-10T08:35:16;24.55;;;14.48;;
40244;SDS011;25963;42.694;23.600;2023-05-10T08:37:42;10.50;;;5.63;;
40244;SDS011;25963;42.694;23.600;2023-05-10T08:40:07;6.57;;;5.90;;
40244;SDS011;25963;42.694;23.600;2023-05-10T08:42:36;7.28;;;5.15;;
40244;SDS011;25963;42.694;23.600;2023-05-10T08:45:06;20.63;;;10.98;;
40244;SDS011;25963;42.694;23.600;2023-05-10T08:47:33;6.53;;;5.20;;
40244;SDS011;25963;42.694;23.600;2023-05-10T08:50:01;7.65;;;5.82;;
40244;SDS011;25963;42.694;23.600;2023-05-10T08:52:27;7.28;;;5.63;;
40244;SDS011;25963;42.694;23.600;2023-05-10T08:54:55;14.85;;;8.75;;
40244;SDS011;25963;42.694;23.600;2023-05-10T08:57:21;10.43;;;7.22;;
40244;SDS011;25963;42.694;23.600;2023-05-10T08:59:47;5.40;;;4.70;;
40244;SDS011;25963;42.694;23.600;2023-05-10T09:02:13;8.05;;;5.35;;
40244;SDS011;25963;42.694;23.600;2023-05-10T09:04:39;11.07;;;5.68;;
40244;SDS011;25963;42.694;23.600;2023-05-10T09:07:05;9.77;;;5.22;;
40244;SDS011;25963;42.694;23.600;2023-05-10T09:09:31;11.20;;;7.35;;
40244;SDS011;25963;42.694;23.600;2023-05-10T09:11:58;10.07;;;7.72;;
40244;SDS011;25963;42.694;23.600;2023-05-10T09:14:24;11.95;;;7.25;;
40244;SDS011;25963;42.694;23.600;2023-05-10T09:16:51;5.85;;;4.43;;
40244;SDS011;25963;42.694;23.600;2023-05-10T09:19:19;5.40;;;4.35;;
40244;SDS011;25963;42.694;23.600;2023-05-10T09:21:44;6.85;;;4.78;;
40244;SDS011;25963;42.694;23.600;2023-05-10T09:24:11;8.82;;;5.88;;
40244;SDS011;25963;42.694;23.600;2023-05-10T09:26:45;11.45;;;6.55;;
40244;SDS011;25963;42.694;23.600;2023-05-10T09:29:13;8.32;;;5.40;;
40244;SDS011;25963;42.694;23.600;2023-05-10T09:31:43;5.28;;;4.72;;
40244;SDS011;25963;42.694;23.600;2023-05-10T09:34:16;5.63;;;4.00;;
40244;SDS011;25963;42.694;23.600;2023-05-10T09:36:56;5.63;;;4.13;;
40244;SDS011;25963;42.694;23.600;2023-05-10T09:39:30;5.57;;;4.07;;
40244;SDS011;25963;42.694;23.600;2023-05-10T09:41:57;4.90;;;3.85;;
40244;SDS011;25963;42.694;23.600;2023-05-10T09:44:26;4.57;;;4.07;;
40244;SDS011;25963;42.694;23.600;2023-05-10T09:47:01;8.15;;;6.97;;
40244;SDS011;25963;42.694;23.600;2023-05-10T09:49:27;7.90;;;5.07;;
40244;SDS011;25963;42.694;23.600;2023-05-10T09:51:59;8.10;;;4.78;;
40244;SDS011;25963;42.694;23.600;2023-05-10T09:54:26;5.00;;;4.50;;
40244;SDS011;25963;42.694;23.600;2023-05-10T09:56:52;6.60;;;4.05;;
40244;SDS011;25963;42.694;23.600;2023-05-10T09:59:17;4.88;;;4.40;;
40244;SDS011;25963;42.694;23.600;2023-05-10T10:01:44;6.35;;;3.78;;
40244;SDS011;25963;42.694;23.600;2023-05-10T10:04:15;5.00;;;4.50;;
40244;SDS011;25963;42.694;23.600;2023-05-10T10:06:41;4.55;;;3.60;;
40244;SDS011;25963;42.694;23.600;2023-05-10T10:09:07;12.15;;;5.13;;
40244;SDS011;25963;42.694;23.600;2023-05-10T10:11:36;8.27;;;5.53;;
40244;SDS011;25963;42.694;23.600;2023-05-10T10:14:07;6.60;;;4.57;;
40244;SDS011;25963;42.694;23.600;2023-05-10T10:16:33;6.30;;;4.03;;
40244;SDS011;25963;42.694;23.600;2023-05-10T10:18:58;8.32;;;3.95;;
40244;SDS011;25963;42.694;23.600;2023-05-10T10:21:27;7.65;;;4.60;;
40244;SDS011;25963;42.694;23.600;2023-05-10T10:23:52;5.72;;;3.97;;
40244;SDS011;25963;42.694;23.600;2023-05-10T10:26:18;5.10;;;4.43;;
40244;SDS011;25963;42.694;23.600;2023-05-10T10:31:40;5.07;;;4.40;;
40244;SDS011;25963;42.694;23.600;2023-05-10T10:34:27;4.15;;;2.80;;
40244;SDS011;25963;42.694;23.600;2023-05-10T10:36:55;4.20;;;3.53;;
40244;SDS011;25963;42.694;23.600;2023-05-10T10:39:22;5.35;;;3.95;;
40244;SDS011;25963;42.694;23.600;2023-05-10T10:41:54;5.30;;;3.25;;
40244;SDS011;25963;42.694;23.600;2023-05-10T10:47:01;18.50;;;9.57;;
40244;SDS011;25963;42.694;23.600;2023-05-10T10:49:27;23.25;;;11.63;;
40244;SDS011;25963;42.694;23.600;2023-05-10T10:54:50;14.35;;;8.57;;
40244;SDS011;25963;42.694;23.600;2023-05-10T10:57:22;5.43;;;4.40;;
40244;SDS011;25963;42.694;23.600;2023-05-10T10:59:48;12.07;;;8.32;;
40244;SDS011;25963;42.694;23.600;2023-05-10T11:07:58;10.13;;;4.72;;
40244;SDS011;25963;42.694;23.600;2023-05-10T11:10:25;6.05;;;4.00;;
40244;SDS011;25963;42.694;23.600;2023-05-10T11:13:01;9.10;;;6.13;;
40244;SDS011;25963;42.694;23.600;2023-05-10T11:15:29;5.88;;;4.63;;
40244;SDS011;25963;42.694;23.600;2023-05-10T11:17:56;22.75;;;16.33;;
40244;SDS011;25963;42.694;23.600;2023-05-10T11:20:22;12.63;;;6.85;;
40244;SDS011;25963;42.694;23.600;2023-05-10T11:22:53;6.50;;;5.00;;
40244;SDS011;25963;42.694;23.600;2023-05-10T11:25:19;8.85;;;5.80;;
40244;SDS011;25963;42.694;23.600;2023-05-10T11:27:51;14.60;;;9.32;;
40244;SDS011;25963;42.694;23.600;2023-05-10T11:30:17;20.67;;;11.73;;
40244;SDS011;25963;42.694;23.600;2023-05-10T11:32:42;20.27;;;10.98;;
40244;SDS011;25963;42.694;23.600;2023-05-10T11:35:12;11.68;;;6.03;;
40244;SDS011;25963;42.694;23.600;2023-05-10T11:37:41;17.02;;;9.25;;
40244;SDS011;25963;42.694;23.600;2023-05-10T11:40:08;8.30;;;5.07;;
40244;SDS011;25963;42.694;23.600;2023-05-10T11:42:38;6.22;;;3.85;;
40244;SDS011;25963;42.694;23.600;2023-05-10T11:45:04;15.32;;;10.60;;
40244;SDS011;25963;42.694;23.600;2023-05-10T11:47:30;6.03;;;4.25;;
40244;SDS011;25963;42.694;23.600;2023-05-10T11:49:56;9.27;;;6.90;;
40244;SDS011;25963;42.694;23.600;2023-05-10T11:52:23;7.38;;;5.78;;
40244;SDS011;25963;42.694;23.600;2023-05-10T11:54:51;5.20;;;3.90;;
40244;SDS011;25963;42.694;23.600;2023-05-10T11:57:19;10.00;;;4.82;;
40244;SDS011;25963;42.694;23.600;2023-05-10T11:59:45;6.85;;;3.92;;
40244;SDS011;25963;42.694;23.600;2023-05-10T12:02:13;7.68;;;5.85;;
40244;SDS011;25963;42.694;23.600;2023-05-10T12:04:39;7.53;;;4.97;;
40244;SDS011;25963;42.694;23.600;2023-05-10T12:07:04;8.40;;;4.28;;
40244;SDS011;25963;42.694;23.600;2023-05-10T12:09:30;7.50;;;4.78;;
40244;SDS011;25963;42.694;23.600;2023-05-10T12:11:56;9.77;;;5.78;;
40244;SDS011;25963;42.694;23.600;2023-05-10T12:14:24;5.40;;;4.10;;
40244;SDS011;25963;42.694;23.600;2023-05-10T12:16:49;4.70;;;4.10;;
40244;SDS011;25963;42.694;23.600;2023-05-10T12:19:18;5.28;;;4.05;;
40244;SDS011;25963;42.694;23.600;2023-05-10T12:21:47;6.30;;;3.95;;
40244;SDS011;25963;42.694;23.600;2023-05-10T12:24:23;7.07;;;3.72;;
40244;SDS011;25963;42.694;23.600;2023-05-10T12:26:50;6.93;;;3.90;;
40244;SDS011;25963;42.694;23.600;2023-05-10T12:29:16;18.15;;;8.30;;
40244;SDS011;25963;42.694;23.600;2023-05-10T12:31:56;23.42;;;10.30;;
40244;SDS011;25963;42.694;23.600;2023-05-10T12:34:31;6.22;;;3.70;;
40244;SDS011;25963;42.694;23.600;2023-05-10T12:36:58;3.78;;;3.10;;
40244;SDS011;25963;42.694;23.600;2023-05-10T12:39:23;6.50;;;3.55;;
40244;SDS011;25963;42.694;23.600;2023-05-10T12:41:50;7.18;;;3.53;;
40244;SDS011;25963;42.694;23.600;2023-05-10T12:44:18;43.20;;;18.52;;
40244;SDS011;25963;42.694;23.600;2023-05-10T12:47:14;31.95;;;13.63;;
40244;SDS011;25963;42.694;23.600;2023-05-10T12:49:47;4.70;;;3.75;;
40244;SDS011;25963;42.694;23.600;2023-05-10T12:52:12;7.03;;;3.78;;
40244;SDS011;25963;42.694;23.600;2023-05-10T12:54:41;6.72;;;4.20;;
40244;SDS011;25963;42.694;23.600;2023-05-10T12:57:12;7.05;;;4.82;;
40244;SDS011;25963;42.694;23.600;2023-05-10T12:59:39;7.35;;;4.32;;
40244;SDS011;25963;42.694;23.600;2023-05-10T13:02:05;5.85;;;4.38;;
40244;SDS011;25963;42.694;23.600;2023-05-10T13:04:31;10.07;;;5.47;;
40244;SDS011;25963;42.694;23.600;2023-05-10T13:06:57;8.43;;;4.40;;
40244;SDS011;25963;42.694;23.600;2023-05-10T13:12:09;7.00;;;4.32;;
40244;SDS011;25963;42.694;23.600;2023-05-10T13:15:00;8.57;;;4.47;;
40244;SDS011;25963;42.694;23.600;2023-05-10T13:17:26;8.90;;;4.57;;
40244;SDS011;25963;42.694;23.600;2023-05-10T13:19:51;6.85;;;5.18;;
40244;SDS011;25963;42.694;23.600;2023-05-10T13:22:22;9.60;;;5.72;;
40244;SDS011;25963;42.694;23.600;2023-05-10T13:27:13;8.15;;;5.57;;
40244;SDS011;25963;42.694;23.600;2023-05-10T13:29:39;8.52;;;5.18;;
40244;SDS011;25963;42.694;23.600;2023-05-10T13:32:04;9.90;;;6.45;;
40244;SDS011;25963;42.694;23.600;2023-05-10T13:34:30;6.95;;;5.38;;
40244;SDS011;25963;42.694;23.600;2023-05-10T13:40:18;6.70;;;4.22;;
40244;SDS011;25963;42.694;23.600;2023-05-10T13:42:44;8.40;;;5.05;;
40244;SDS011;25963;42.694;23.600;2023-05-10T13:45:22;10.73;;;5.10;;
40244;SDS011;25963;42.694;23.600;2023-05-10T13:47:47;12.05;;;6.38;;
40244;SDS011;25963;42.694;23.600;2023-05-10T13:50:42;8.68;;;6.30;;
40244;SDS011;25963;42.694;23.600;2023-05-10T13:53:08;7.93;;;5.60;;
40244;SDS011;25963;42.694;23.600;2023-05-10T13:58:59;10.45;;;6.25;;
40244;SDS011;25963;42.694;23.600;2023-05-10T14:01:25;11.00;;;6.68;;
40244;SDS011;25963;42.694;23.600;2023-05-10T14:03:51;7.55;;;5.55;;
40244;SDS011;25963;42.694;23.600;2023-05-10T14:06:17;9.90;;;6.05;;
40244;SDS011;25963;42.694;23.600;2023-05-10T14:08:43;12.00;;;6.60;;
40244;SDS011;25963;42.694;23.600;2023-05-10T14:11:09;7.05;;;4.85;;
40244;SDS011;25963;42.694;23.600;2023-05-10T14:13:34;9.32;;;7.57;;
40244;SDS011;25963;42.694;23.600;2023-05-10T14:16:00;7.97;;;5.30;;
40244;SDS011;25963;42.694;23.600;2023-05-10T14:18:26;7.57;;;5.70;;
40244;SDS011;25963;42.694;23.600;2023-05-10T14:20:55;7.50;;;5.60;;
40244;SDS011;25963;42.694;23.600;2023-05-10T14:23:29;6.55;;;5.82;;
40244;SDS011;25963;42.694;23.600;2023-05-10T14:25:58;15.85;;;7.30;;
40244;SDS011;25963;42.694;23.600;2023-05-10T14:28:23;7.50;;;5.95;;
40244;SDS011;25963;42.694;23.600;2023-05-10T14:30:50;8.70;;;7.22;;
40244;SDS011;25963;42.694;23.600;2023-05-10T14:33:16;12.07;;;7.15;;
40244;SDS011;25963;42.694;23.600;2023-05-10T14:35:42;6.47;;;5.07;;
40244;SDS011;25963;42.694;23.600;2023-05-10T14:38:07;6.18;;;4.97;;
40244;SDS011;25963;42.694;23.600;2023-05-10T14:40:33;8.88;;;5.80;;
40244;SDS011;25963;42.694;23.600;2023-05-10T14:42:59;12.65;;;5.70;;
40244;SDS011;25963;42.694;23.600;2023-05-10T14:45:25;7.32;;;4.72;;
40244;SDS011;25963;42.694;23.600;2023-05-10T14:47:50;7.65;;;6.03;;
40244;SDS011;25963;42.694;23.600;2023-05-10T14:50:33;6.25;;;5.43;;
40244;SDS011;25963;42.694;23.600;2023-05-10T14:56:01;7.53;;;5.70;;
40244;SDS011;25963;42.694;23.600;2023-05-10T14:58:26;9.05;;;4.82;;
40244;SDS011;25963;42.694;23.600;2023-05-10T15:00:52;8.90;;;5.72;;
40244;SDS011;25963;42.694;23.600;2023-05-10T15:03:17;6.82;;;4.53;;
40244;SDS011;25963;42.694;23.600;2023-05-10T15:05:43;6.10;;;4.97;;
40244;SDS011;25963;42.694;23.600;2023-05-10T15:08:09;7.47;;;4.97;;
40244;SDS011;25963;42.694;23.600;2023-05-10T15:10:34;6.18;;;5.57;;
40244;SDS011;25963;42.694;23.600;2023-05-10T15:13:03;8.90;;;4.75;;
40244;SDS011;25963;42.694;23.600;2023-05-10T15:15:29;8.93;;;5.28;;
40244;SDS011;25963;42.694;23.600;2023-05-10T15:17:54;8.13;;;6.00;;
40244;SDS011;25963;42.694;23.600;2023-05-10T15:20:23;9.68;;;4.55;;
40244;SDS011;25963;42.694;23.600;2023-05-10T15:22:51;5.88;;;3.92;;
40244;SDS011;25963;42.694;23.600;2023-05-10T15:25:17;9.20;;;5.32;;
40244;SDS011;25963;42.694;23.600;2023-05-10T15:27:42;10.07;;;5.03;;
40244;SDS011;25963;42.694;23.600;2023-05-10T15:30:09;6.82;;;5.50;;
40244;SDS011;25963;42.694;23.600;2023-05-10T15:32:35;6.43;;;5.72;;
40244;SDS011;25963;42.694;23.600;2023-05-10T15:35:01;12.65;;;5.72;;
40244;SDS011;25963;42.694;23.600;2023-05-10T15:37:27;9.10;;;6.07;;
40244;SDS011;25963;42.694;23.600;2023-05-10T15:39:53;12.52;;;6.70;;
40244;SDS011;25963;42.694;23.600;2023-05-10T15:42:18;7.15;;;5.85;;
40244;SDS011;25963;42.694;23.600;2023-05-10T15:44:44;8.88;;;6.50;;
40244;SDS011;25963;42.694;23.600;2023-05-10T15:47:10;9.48;;;7.25;;
40244;SDS011;25963;42.694;23.600;2023-05-10T15:49:35;8.00;;;6.60;;
40244;SDS011;25963;42.694;23.600;2023-05-10T15:52:00;8.68;;;6.50;;
40244;SDS011;25963;42.694;23.600;2023-05-10T15:54:26;10.77;;;6.85;;
40244;SDS011;25963;42.694;23.600;2023-05-10T15:56:52;8.98;;;6.68;;
40244;SDS011;25963;42.694;23.600;2023-05-10T15:59:18;10.07;;;6.82;;
40244;SDS011;25963;42.694;23.600;2023-05-10T16:01:44;8.40;;;7.28;;
40244;SDS011;25963;42.694;23.600;2023-05-10T16:04:10;10.40;;;7.82;;